x

Bay Of Campeche - 214 Nm Ne Of Veracruz, Mx (42055) Wave Buoy

7:50pm - Tue 28th Jun 2016 All times are UTC.

  • Sig Wave height 1.3ft
  • Swell Direction
  • Peak Period 5s
  • Average Period 4s
  • Wind
    7mph, 9mph gusts
  • Sea Temp 89°f
  • Air Temp 85°f
  • Sea Pressure 1015.5mb

More Historic Weather Station data

Upgrade to MSW Pro to gain access to the past 30 days of data for over 8000 Wavebouys and Weather Stations around the globe.

Join Pro

Comparision Forecast

View Surf forecast
   
Tue 06/28 7:50pm 1.3ft 5s 4s 7 9 mph 1015.5mb 89f 85f
6:50pm 1.3ft 4s 4s 2 4 mph 1016mb 89f 85f
5:50pm 1.3ft 5s 4s 2 4 mph 1016mb 88f 85f
4:50pm 1.3ft 5s 4s  -  2 mph 1016.3mb 87f 85f
3:50pm 1.3ft 4s 4s 2 4 mph 1016.6mb 86f 84f
2:50pm 1.3ft 5s 4s 4
mph
1016.1mb 85f 84f
1:50pm 1.3ft 5s 4s 7 9 mph 1016.2mb 85f 84f
12:50pm 1.3ft 5s 4s 9 11 mph 1015.9mb 85f 83f
11:50am 1.3ft 5s 4s 11 13 mph 1015.5mb 85f 83f
10:50am 1.3ft 5s 4s 9 11 mph 1015.3mb 85f 83f
9:50am 1.3ft 4s 4s 9 11 mph 1014.8mb 85f 83f
8:50am 1.6ft 5s 4s 9 11 mph 1014.8mb 85f 83f
7:50am 1.6ft 5s 4s 9 11 mph 1015.1mb 85f 83f
6:50am 1.3ft 5s 4s 9 11 mph 1015.9mb 85f 84f
5:50am 1.6ft 5s 4s 11 13 mph 1016.5mb 85f 84f
4:50am 1.6ft 5s 4s 9
mph
1016.3mb 85f 84f
3:50am 1.6ft 5s 4s 11
mph
1015.8mb 85f 84f
2:50am 1.6ft 5s 4s 11 13 mph 1015.2mb 85f 84f
1:50am 2ft 5s 4s 9 11 mph 1014.3mb 85f 84f
12:50am 2ft 5s 4s 9
mph
1013.9mb 85f 84f
Mon 06/27 11:50pm 2ft 5s 4s 9
mph
1013.6mb 85f 85f
10:50pm 2.5ft 5s 4s 9 11 mph 1014.1mb 85f 85f
9:50pm 2.5ft 6s 4s 11 13 mph 1014.7mb 85f 85f
8:50pm 2.5ft 5s 4s 11 13 mph 1015.4mb 85f 84f
7:50pm 2.5ft 6s 4s 11 13 mph 1015.6mb 85f 84f
6:50pm 2.5ft 5s 4s 11 13 mph 1016mb 85f 84f
5:50pm 2.5ft 5s 4s 11 13 mph 1016.4mb 85f 84f
4:50pm 2.5ft 5s 4s 11 13 mph 1016.8mb 85f 84f
3:50pm 2.5ft 5s 4s 11 13 mph 1016.7mb 85f 84f
2:50pm 2.5ft 5s 4s 11 13 mph 1016.4mb 84f 84f
1:50pm 2.5ft 5s 4s 13 16 mph 1016.4mb 84f 84f
12:50pm 2.5ft 4s 4s 13 16 mph 1015.8mb 84f 84f
11:50am 2.5ft 5s 4s 16 18 mph 1015.2mb 84f 83f
10:50am 2.5ft 6s 4s 13 16 mph 1014.9mb 84f 83f
9:50am 2.5ft 6s 4s 13 16 mph 1014.8mb 84f 83f
8:50am 2.5ft 6s 4s 13 16 mph 1015.1mb 84f 83f
7:50am 2.5ft 6s 4s 13 16 mph 1015.2mb 84f 83f
6:50am 2.5ft 5s 4s 11 13 mph 1015.7mb 84f 83f
5:50am 2.5ft 6s 4s 13 16 mph 1016.2mb 84f 83f
4:50am 2.5ft 6s 4s 13 16 mph 1016.1mb 85f 83f
3:50am 2.5ft 6s 4s 13 16 mph 1016mb 85f 84f
2:50am 2.5ft 6s 4s 13 16 mph 1015.2mb 85f 84f
1:50am 2.5ft 6s 4s 13 18 mph 1014.8mb 85f 84f
12:50am 2.5ft 6s 4s 16 18 mph 1014.7mb 85f 84f
Sun 06/26 11:50pm 2.5ft 6s 4s 16 18 mph 1014.5mb 85f 84f
10:50pm 2.5ft 6s 5s 13 16 mph 1014.3mb 85f 85f
9:50pm 3ft 6s 5s 11 13 mph 1014.9mb 85f 85f
8:50pm 3ft 6s 5s 11
mph
1015.2mb 85f 85f
7:50pm 3.5ft 6s 5s 11 13 mph 1015.8mb 85f 85f
6:50pm 3.5ft 5s 5s 9 11 mph 1016.1mb 85f 85f
5:50pm 3.5ft 6s 5s 11 13 mph 1016.3mb 85f 84f
4:50pm 3.5ft 6s 5s 11 13 mph 1016.5mb 84f 84f
3:50pm 3.5ft 6s 5s 11 13 mph 1016.5mb 84f 84f
2:50pm 3.5ft 5s 4s 11 13 mph 1016.2mb 84f 84f
1:50pm 4ft 6s 5s 16 18 mph 1015.6mb 84f 84f
12:50pm 3.5ft 6s 5s 16 18 mph 1014.8mb 84f 84f
11:50am 3.5ft 6s 4s 16 18 mph 1014.4mb 84f 84f
10:50am 3.5ft 5s 4s 16 20 mph 1014.2mb 84f 84f
9:50am 3.5ft 5s 4s 16 18 mph 1014.2mb 84f 84f
7:50am 3.5ft 5s 4s 16 18 mph 1014.8mb 84f 84f
6:50am 3.5ft 5s 4s 18 20 mph 1015.3mb 84f 84f
5:50am 3.5ft 5s 4s 18 22 mph 1015.6mb 84f 84f
4:50am 3.5ft 5s 4s 18 20 mph 1015.3mb 84f 84f
3:50am 3.5ft 4s 4s 18 20 mph 1014.6mb 84f 84f
2:50am 3.5ft 5s 4s 18 20 mph 1014.4mb 84f 84f
1:50am 3ft 6s 4s 18 20 mph 1014.4mb 84f 84f
12:50am 3ft 6s 4s 20 22 mph 1014mb 84f 84f
Sat 06/25 11:50pm 3.5ft 6s 4s 16 20 mph 1013.9mb 84f 84f
10:50pm 3.5ft 6s 4s 16 18 mph 1014.1mb 84f 84f
9:50pm 3ft 6s 4s 16 20 mph 1014.3mb 84f 84f
8:50pm 3.5ft 6s 4s 18 20 mph 1014.5mb 84f 84f
7:50pm 3.5ft 6s 5s 16 18 mph 1015mb 84f 84f
6:50pm 3.5ft 6s 5s 16 18 mph 1015.3mb 84f 84f
5:50pm 3.5ft 6s 5s 13 16 mph 1015.5mb 84f 83f
4:50pm 4.5ft 6s 5s 13 16 mph 1015.7mb 84f 83f
3:50pm 4ft 6s 5s 9 11 mph 1015.4mb 84f 82f
2:50pm 4ft 6s 5s 11
mph
1015.6mb 84f 80f
1:50pm 4.5ft 6s 5s 16 18 mph 1015.8mb 84f 79f
12:50pm 4.5ft 6s 5s 13 16 mph 1015.6mb 84f 78f
11:50am 4.5ft 6s 5s 20 25 mph 1014.2mb 84f 84f
10:50am 4.5ft 5s 4s 20 22 mph 1013.8mb 84f 84f
9:50am 4.5ft 6s 4s 20 22 mph 1013.9mb 84f 84f
8:50am 4.5ft 6s 4s 20 25 mph 1013.8mb 84f 84f
7:50am 4ft 6s 4s 20 22 mph 1013.9mb 84f 84f
6:50am 3.5ft 6s 4s 18 22 mph 1014.6mb 84f 84f
5:50am 4ft 6s 4s 18 20 mph 1015.5mb 84f 84f
4:50am 4ft 6s 4s 18 20 mph 1015.7mb 84f 84f
3:50am 3.5ft 6s 4s 20 22 mph 1015.4mb 84f 84f
2:50am 4ft 6s 4s 13 18 mph 1014.9mb 84f 83f
1:50am 4ft 7s 4s 20 22 mph 1013.7mb 84f 82f
12:50am 3.5ft 6s 5s 20 25 mph 1013.5mb 84f 84f
Fri 06/24 11:50pm 4ft 7s 5s 11 16 mph 1013.7mb 84f 82f
10:50pm 4.5ft 7s 5s 11 18 mph 1014.5mb 84f 80f
9:50pm 4.5ft 7s 5s 16 18 mph 1014.7mb 84f 80f